sensor_id;sensor_type;location;lat;lon;timestamp;P1;durP1;ratioP1;P2;durP2;ratioP2
65658;SDS011;60181;53.258;6.932;2022-09-09T00:00:47;11.20;;;5.00;;
65658;SDS011;60181;53.258;6.932;2022-09-09T00:05:20;11.20;;;5.00;;
65658;SDS011;60181;53.258;6.932;2022-09-09T00:09:47;11.80;;;5.00;;
65658;SDS011;60181;53.258;6.932;2022-09-09T00:14:11;11.80;;;5.00;;
65658;SDS011;60181;53.258;6.932;2022-09-09T00:18:46;13.10;;;5.40;;
65658;SDS011;60181;53.258;6.932;2022-09-09T00:23:14;13.10;;;5.40;;
65658;SDS011;60181;53.258;6.932;2022-09-09T00:32:04;13.40;;;5.40;;
65658;SDS011;60181;53.258;6.932;2022-09-09T00:36:28;10.20;;;5.90;;
65658;SDS011;60181;53.258;6.932;2022-09-09T00:40:58;10.20;;;5.90;;
65658;SDS011;60181;53.258;6.932;2022-09-09T00:45:51;10.20;;;5.90;;
65658;SDS011;60181;53.258;6.932;2022-09-09T00:50:03;11.40;;;5.20;;
65658;SDS011;60181;53.258;6.932;2022-09-09T00:54:33;11.40;;;5.20;;
65658;SDS011;60181;53.258;6.932;2022-09-09T00:58:54;11.40;;;5.20;;
65658;SDS011;60181;53.258;6.932;2022-09-09T01:03:29;11.40;;;5.20;;
65658;SDS011;60181;53.258;6.932;2022-09-09T01:07:44;11.80;;;4.90;;
65658;SDS011;60181;53.258;6.932;2022-09-09T01:12:24;11.80;;;4.90;;
65658;SDS011;60181;53.258;6.932;2022-09-09T01:16:40;11.10;;;5.00;;
65658;SDS011;60181;53.258;6.932;2022-09-09T01:21:27;11.10;;;5.00;;
65658;SDS011;60181;53.258;6.932;2022-09-09T01:30:07;11.90;;;5.00;;
65658;SDS011;60181;53.258;6.932;2022-09-09T01:34:33;11.90;;;5.00;;
65658;SDS011;60181;53.258;6.932;2022-09-09T01:39:00;14.50;;;5.10;;
65658;SDS011;60181;53.258;6.932;2022-09-09T01:43:28;14.50;;;5.10;;
65658;SDS011;60181;53.258;6.932;2022-09-09T01:47:56;13.00;;;4.40;;
65658;SDS011;60181;53.258;6.932;2022-09-09T01:52:24;13.00;;;4.40;;
65658;SDS011;60181;53.258;6.932;2022-09-09T02:01:28;10.60;;;5.00;;
65658;SDS011;60181;53.258;6.932;2022-09-09T02:05:55;10.60;;;5.00;;
65658;SDS011;60181;53.258;6.932;2022-09-09T02:10:18;11.70;;;5.10;;
65658;SDS011;60181;53.258;6.932;2022-09-09T02:14:49;11.70;;;5.10;;
65658;SDS011;60181;53.258;6.932;2022-09-09T02:19:19;13.40;;;5.20;;
65658;SDS011;60181;53.258;6.932;2022-09-09T02:23:40;13.40;;;5.20;;
65658;SDS011;60181;53.258;6.932;2022-09-09T02:28:08;10.50;;;5.20;;
65658;SDS011;60181;53.258;6.932;2022-09-09T02:32:36;10.50;;;5.20;;
65658;SDS011;60181;53.258;6.932;2022-09-09T02:37:04;10.80;;;5.00;;
65658;SDS011;60181;53.258;6.932;2022-09-09T02:41:32;10.80;;;5.00;;
65658;SDS011;60181;53.258;6.932;2022-09-09T02:46:03;10.80;;;5.00;;
65658;SDS011;60181;53.258;6.932;2022-09-09T02:50:38;11.10;;;4.90;;
65658;SDS011;60181;53.258;6.932;2022-09-09T02:54:57;11.10;;;4.90;;
65658;SDS011;60181;53.258;6.932;2022-09-09T02:59:24;11.60;;;4.90;;
65658;SDS011;60181;53.258;6.932;2022-09-09T03:03:52;11.60;;;4.90;;
65658;SDS011;60181;53.258;6.932;2022-09-09T03:08:20;11.80;;;4.70;;
65658;SDS011;60181;53.258;6.932;2022-09-09T03:12:48;11.80;;;4.70;;
65658;SDS011;60181;53.258;6.932;2022-09-09T03:17:16;10.50;;;4.80;;
65658;SDS011;60181;53.258;6.932;2022-09-09T03:21:44;10.50;;;4.80;;
65658;SDS011;60181;53.258;6.932;2022-09-09T03:26:12;10.50;;;4.80;;
65658;SDS011;60181;53.258;6.932;2022-09-09T03:30:40;10.50;;;4.80;;
65658;SDS011;60181;53.258;6.932;2022-09-09T03:35:08;10.50;;;4.80;;
65658;SDS011;60181;53.258;6.932;2022-09-09T03:39:36;10.90;;;4.20;;
65658;SDS011;60181;53.258;6.932;2022-09-09T03:44:04;10.90;;;4.20;;
65658;SDS011;60181;53.258;6.932;2022-09-09T03:48:32;10.90;;;4.20;;
65658;SDS011;60181;53.258;6.932;2022-09-09T03:53:00;10.90;;;4.20;;
65658;SDS011;60181;53.258;6.932;2022-09-09T03:57:28;8.10;;;2.70;;
65658;SDS011;60181;53.258;6.932;2022-09-09T04:01:56;8.10;;;2.70;;
65658;SDS011;60181;53.258;6.932;2022-09-09T04:06:24;8.10;;;2.70;;
65658;SDS011;60181;53.258;6.932;2022-09-09T04:10:52;6.00;;;2.30;;
65658;SDS011;60181;53.258;6.932;2022-09-09T04:15:20;6.00;;;2.30;;
65658;SDS011;60181;53.258;6.932;2022-09-09T04:19:48;5.70;;;2.10;;
65658;SDS011;60181;53.258;6.932;2022-09-09T04:24:16;5.70;;;2.10;;
65658;SDS011;60181;53.258;6.932;2022-09-09T04:28:44;5.50;;;2.00;;
65658;SDS011;60181;53.258;6.932;2022-09-09T04:33:12;5.50;;;2.00;;
65658;SDS011;60181;53.258;6.932;2022-09-09T04:37:40;4.20;;;2.00;;
65658;SDS011;60181;53.258;6.932;2022-09-09T04:42:08;4.20;;;2.00;;
65658;SDS011;60181;53.258;6.932;2022-09-09T04:46:36;3.50;;;2.00;;
65658;SDS011;60181;53.258;6.932;2022-09-09T04:51:05;3.50;;;2.00;;
65658;SDS011;60181;53.258;6.932;2022-09-09T04:55:32;3.50;;;2.00;;
65658;SDS011;60181;53.258;6.932;2022-09-09T05:00:00;9.40;;;2.20;;
65658;SDS011;60181;53.258;6.932;2022-09-09T05:04:28;9.40;;;2.20;;
65658;SDS011;60181;53.258;6.932;2022-09-09T05:08:56;10.20;;;2.00;;
65658;SDS011;60181;53.258;6.932;2022-09-09T05:13:24;10.20;;;2.00;;
65658;SDS011;60181;53.258;6.932;2022-09-09T05:17:52;9.00;;;2.10;;
65658;SDS011;60181;53.258;6.932;2022-09-09T05:22:20;9.00;;;2.10;;
65658;SDS011;60181;53.258;6.932;2022-09-09T05:26:48;4.90;;;1.90;;
65658;SDS011;60181;53.258;6.932;2022-09-09T05:31:17;4.90;;;1.90;;
65658;SDS011;60181;53.258;6.932;2022-09-09T05:35:44;4.90;;;1.90;;
65658;SDS011;60181;53.258;6.932;2022-09-09T05:40:12;6.40;;;1.80;;
65658;SDS011;60181;53.258;6.932;2022-09-09T05:44:40;6.40;;;1.80;;
65658;SDS011;60181;53.258;6.932;2022-09-09T05:49:08;7.30;;;1.90;;
65658;SDS011;60181;53.258;6.932;2022-09-09T05:53:36;7.30;;;1.90;;
65658;SDS011;60181;53.258;6.932;2022-09-09T05:58:04;4.70;;;1.70;;
65658;SDS011;60181;53.258;6.932;2022-09-09T06:02:32;4.70;;;1.70;;
65658;SDS011;60181;53.258;6.932;2022-09-09T06:07:00;6.10;;;1.80;;
65658;SDS011;60181;53.258;6.932;2022-09-09T06:11:29;6.10;;;1.80;;
65658;SDS011;60181;53.258;6.932;2022-09-09T06:15:56;6.10;;;1.80;;
65658;SDS011;60181;53.258;6.932;2022-09-09T06:20:24;4.80;;;1.60;;
65658;SDS011;60181;53.258;6.932;2022-09-09T06:24:52;4.80;;;1.60;;
65658;SDS011;60181;53.258;6.932;2022-09-09T06:29:20;4.80;;;1.60;;
65658;SDS011;60181;53.258;6.932;2022-09-09T06:33:49;4.80;;;1.60;;
65658;SDS011;60181;53.258;6.932;2022-09-09T06:38:16;6.50;;;1.90;;
65658;SDS011;60181;53.258;6.932;2022-09-09T06:42:44;6.50;;;1.90;;
65658;SDS011;60181;53.258;6.932;2022-09-09T06:47:12;4.90;;;1.80;;
65658;SDS011;60181;53.258;6.932;2022-09-09T06:51:40;4.90;;;1.80;;
65658;SDS011;60181;53.258;6.932;2022-09-09T06:56:17;4.90;;;1.80;;
65658;SDS011;60181;53.258;6.932;2022-09-09T07:00:36;3.80;;;1.60;;
65658;SDS011;60181;53.258;6.932;2022-09-09T07:05:04;3.80;;;1.60;;
65658;SDS011;60181;53.258;6.932;2022-09-09T07:09:32;3.60;;;1.60;;
65658;SDS011;60181;53.258;6.932;2022-09-09T07:14:00;3.60;;;1.60;;
65658;SDS011;60181;53.258;6.932;2022-09-09T07:18:28;3.80;;;1.50;;
65658;SDS011;60181;53.258;6.932;2022-09-09T07:22:56;3.80;;;1.50;;
65658;SDS011;60181;53.258;6.932;2022-09-09T07:27:24;3.80;;;1.50;;
65658;SDS011;60181;53.258;6.932;2022-09-09T07:31:52;3.80;;;1.50;;
65658;SDS011;60181;53.258;6.932;2022-09-09T07:36:22;3.80;;;1.50;;
65658;SDS011;60181;53.258;6.932;2022-09-09T07:40:48;4.70;;;1.70;;
65658;SDS011;60181;53.258;6.932;2022-09-09T07:45:16;4.70;;;1.70;;
65658;SDS011;60181;53.258;6.932;2022-09-09T07:49:44;2.40;;;1.40;;
65658;SDS011;60181;53.258;6.932;2022-09-09T07:54:12;2.40;;;1.40;;
65658;SDS011;60181;53.258;6.932;2022-09-09T07:58:40;4.30;;;1.50;;
65658;SDS011;60181;53.258;6.932;2022-09-09T08:03:08;4.30;;;1.50;;
65658;SDS011;60181;53.258;6.932;2022-09-09T08:07:36;3.10;;;1.50;;
65658;SDS011;60181;53.258;6.932;2022-09-09T08:12:04;3.10;;;1.50;;
65658;SDS011;60181;53.258;6.932;2022-09-09T08:16:32;3.10;;;1.50;;
65658;SDS011;60181;53.258;6.932;2022-09-09T08:21:10;2.80;;;1.40;;
65658;SDS011;60181;53.258;6.932;2022-09-09T08:25:28;2.80;;;1.40;;
65658;SDS011;60181;53.258;6.932;2022-09-09T08:29:56;3.20;;;1.40;;
65658;SDS011;60181;53.258;6.932;2022-09-09T08:34:24;3.20;;;1.40;;
65658;SDS011;60181;53.258;6.932;2022-09-09T08:38:53;3.60;;;1.60;;
65658;SDS011;60181;53.258;6.932;2022-09-09T08:43:20;3.60;;;1.60;;
65658;SDS011;60181;53.258;6.932;2022-09-09T08:52:17;2.30;;;1.40;;
65658;SDS011;60181;53.258;6.932;2022-09-09T08:56:44;1.80;;;1.30;;
65658;SDS011;60181;53.258;6.932;2022-09-09T09:05:46;1.80;;;1.30;;
65658;SDS011;60181;53.258;6.932;2022-09-09T09:10:31;2.90;;;1.20;;
65658;SDS011;60181;53.258;6.932;2022-09-09T09:14:36;2.90;;;1.20;;
65658;SDS011;60181;53.258;6.932;2022-09-09T09:19:04;4.90;;;1.50;;
65658;SDS011;60181;53.258;6.932;2022-09-09T09:23:42;4.90;;;1.50;;
65658;SDS011;60181;53.258;6.932;2022-09-09T09:28:01;2.10;;;1.40;;
65658;SDS011;60181;53.258;6.932;2022-09-09T09:32:29;2.10;;;1.40;;
65658;SDS011;60181;53.258;6.932;2022-09-09T09:36:56;4.60;;;1.60;;
65658;SDS011;60181;53.258;6.932;2022-09-09T09:41:36;4.60;;;1.60;;
65658;SDS011;60181;53.258;6.932;2022-09-09T09:45:52;4.60;;;1.60;;
65658;SDS011;60181;53.258;6.932;2022-09-09T09:50:20;3.70;;;1.50;;
65658;SDS011;60181;53.258;6.932;2022-09-09T09:54:48;3.70;;;1.50;;
65658;SDS011;60181;53.258;6.932;2022-09-09T10:03:49;2.80;;;1.40;;
65658;SDS011;60181;53.258;6.932;2022-09-09T10:08:13;3.10;;;1.50;;
65658;SDS011;60181;53.258;6.932;2022-09-09T10:30:42;3.30;;;1.60;;
65658;SDS011;60181;53.258;6.932;2022-09-09T10:35:10;3.30;;;1.60;;
65658;SDS011;60181;53.258;6.932;2022-09-09T10:57:24;6.00;;;2.20;;
65658;SDS011;60181;53.258;6.932;2022-09-09T11:01:52;6.00;;;2.20;;
65658;SDS011;60181;53.258;6.932;2022-09-09T11:06:17;6.00;;;2.20;;
65658;SDS011;60181;53.258;6.932;2022-09-09T11:10:59;7.30;;;2.10;;
65658;SDS011;60181;53.258;6.932;2022-09-09T11:15:20;7.30;;;2.10;;
65658;SDS011;60181;53.258;6.932;2022-09-09T11:19:40;6.20;;;2.30;;
65658;SDS011;60181;53.258;6.932;2022-09-09T11:24:11;6.20;;;2.30;;
65658;SDS011;60181;53.258;6.932;2022-09-09T11:33:16;10.50;;;2.30;;
65658;SDS011;60181;53.258;6.932;2022-09-09T11:37:41;12.60;;;2.90;;
65658;SDS011;60181;53.258;6.932;2022-09-09T11:42:06;12.60;;;2.90;;
65658;SDS011;60181;53.258;6.932;2022-09-09T11:46:34;12.60;;;2.90;;
65658;SDS011;60181;53.258;6.932;2022-09-09T11:50:59;15.10;;;2.80;;
65658;SDS011;60181;53.258;6.932;2022-09-09T11:55:27;15.10;;;2.80;;
65658;SDS011;60181;53.258;6.932;2022-09-09T11:59:52;14.00;;;2.90;;
65658;SDS011;60181;53.258;6.932;2022-09-09T12:04:30;14.00;;;2.90;;
65658;SDS011;60181;53.258;6.932;2022-09-09T12:08:49;10.00;;;2.50;;
65658;SDS011;60181;53.258;6.932;2022-09-09T12:13:22;10.00;;;2.50;;
65658;SDS011;60181;53.258;6.932;2022-09-09T12:17:44;9.30;;;2.60;;
65658;SDS011;60181;53.258;6.932;2022-09-09T12:22:30;9.30;;;2.60;;
65658;SDS011;60181;53.258;6.932;2022-09-09T12:31:12;15.80;;;2.90;;
65658;SDS011;60181;53.258;6.932;2022-09-09T12:35:35;15.80;;;2.90;;
65658;SDS011;60181;53.258;6.932;2022-09-09T12:40:05;14.40;;;2.80;;
65658;SDS011;60181;53.258;6.932;2022-09-09T12:44:31;14.40;;;2.80;;
65658;SDS011;60181;53.258;6.932;2022-09-09T12:48:59;11.60;;;2.40;;
65658;SDS011;60181;53.258;6.932;2022-09-09T12:53:34;11.60;;;2.40;;
65658;SDS011;60181;53.258;6.932;2022-09-09T12:57:56;10.90;;;2.10;;
65658;SDS011;60181;53.258;6.932;2022-09-09T13:02:26;10.90;;;2.10;;
65658;SDS011;60181;53.258;6.932;2022-09-09T13:06:51;11.10;;;2.30;;
65658;SDS011;60181;53.258;6.932;2022-09-09T13:11:24;11.10;;;2.30;;
65658;SDS011;60181;53.258;6.932;2022-09-09T13:15:48;11.10;;;2.30;;
65658;SDS011;60181;53.258;6.932;2022-09-09T13:20:16;11.40;;;2.60;;
65658;SDS011;60181;53.258;6.932;2022-09-09T13:24:43;11.40;;;2.60;;
65658;SDS011;60181;53.258;6.932;2022-09-09T13:29:17;10.90;;;2.40;;
65658;SDS011;60181;53.258;6.932;2022-09-09T13:33:39;10.90;;;2.40;;
65658;SDS011;60181;53.258;6.932;2022-09-09T13:38:08;9.60;;;2.30;;
65658;SDS011;60181;53.258;6.932;2022-09-09T13:42:37;9.60;;;2.30;;
65658;SDS011;60181;53.258;6.932;2022-09-09T13:47:17;11.60;;;2.50;;
65658;SDS011;60181;53.258;6.932;2022-09-09T13:51:41;11.60;;;2.50;;
65658;SDS011;60181;53.258;6.932;2022-09-09T13:56:00;11.60;;;2.50;;
65658;SDS011;60181;53.258;6.932;2022-09-09T14:00:31;9.20;;;2.00;;
65658;SDS011;60181;53.258;6.932;2022-09-09T14:04:55;9.20;;;2.00;;
65658;SDS011;60181;53.258;6.932;2022-09-09T14:09:23;8.70;;;1.90;;
65658;SDS011;60181;53.258;6.932;2022-09-09T14:13:51;8.70;;;1.90;;
65658;SDS011;60181;53.258;6.932;2022-09-09T14:18:19;8.50;;;2.00;;
65658;SDS011;60181;53.258;6.932;2022-09-09T14:22:47;8.50;;;2.00;;
65658;SDS011;60181;53.258;6.932;2022-09-09T14:27:16;11.00;;;2.50;;
65658;SDS011;60181;53.258;6.932;2022-09-09T14:31:43;11.00;;;2.50;;
65658;SDS011;60181;53.258;6.932;2022-09-09T14:36:11;11.00;;;2.50;;
65658;SDS011;60181;53.258;6.932;2022-09-09T14:40:39;9.80;;;2.30;;
65658;SDS011;60181;53.258;6.932;2022-09-09T14:45:07;9.80;;;2.30;;
65658;SDS011;60181;53.258;6.932;2022-09-09T14:49:35;6.70;;;1.90;;
65658;SDS011;60181;53.258;6.932;2022-09-09T14:54:03;6.70;;;1.90;;
65658;SDS011;60181;53.258;6.932;2022-09-09T14:58:31;8.40;;;1.90;;
65658;SDS011;60181;53.258;6.932;2022-09-09T15:02:59;8.40;;;1.90;;
65658;SDS011;60181;53.258;6.932;2022-09-09T15:07:27;5.80;;;1.70;;
65658;SDS011;60181;53.258;6.932;2022-09-09T15:11:55;5.80;;;1.70;;
65658;SDS011;60181;53.258;6.932;2022-09-09T15:16:24;5.80;;;1.70;;
65658;SDS011;60181;53.258;6.932;2022-09-09T15:20:51;5.90;;;1.80;;
65658;SDS011;60181;53.258;6.932;2022-09-09T15:25:19;5.90;;;1.80;;
65658;SDS011;60181;53.258;6.932;2022-09-09T15:29:47;4.80;;;1.80;;
65658;SDS011;60181;53.258;6.932;2022-09-09T15:34:15;4.80;;;1.80;;
65658;SDS011;60181;53.258;6.932;2022-09-09T15:38:43;6.50;;;2.10;;
65658;SDS011;60181;53.258;6.932;2022-09-09T15:43:11;6.50;;;2.10;;
65658;SDS011;60181;53.258;6.932;2022-09-09T15:47:39;6.70;;;2.20;;
65658;SDS011;60181;53.258;6.932;2022-09-09T15:52:08;6.70;;;2.20;;
65658;SDS011;60181;53.258;6.932;2022-09-09T15:56:36;7.40;;;2.80;;
65658;SDS011;60181;53.258;6.932;2022-09-09T16:01:08;7.40;;;2.80;;
65658;SDS011;60181;53.258;6.932;2022-09-09T16:05:32;7.40;;;2.80;;
65658;SDS011;60181;53.258;6.932;2022-09-09T16:10:00;6.00;;;3.20;;
65658;SDS011;60181;53.258;6.932;2022-09-09T16:14:28;6.00;;;3.20;;
65658;SDS011;60181;53.258;6.932;2022-09-09T16:19:00;6.80;;;3.40;;
65658;SDS011;60181;53.258;6.932;2022-09-09T16:23:24;6.80;;;3.40;;
65658;SDS011;60181;53.258;6.932;2022-09-09T16:27:52;6.80;;;3.40;;
65658;SDS011;60181;53.258;6.932;2022-09-09T16:32:20;6.80;;;3.40;;
65658;SDS011;60181;53.258;6.932;2022-09-09T16:36:48;10.70;;;3.60;;
65658;SDS011;60181;53.258;6.932;2022-09-09T16:41:16;10.70;;;3.60;;
65658;SDS011;60181;53.258;6.932;2022-09-09T16:45:44;10.70;;;3.60;;
65658;SDS011;60181;53.258;6.932;2022-09-09T16:50:12;14.90;;;3.60;;
65658;SDS011;60181;53.258;6.932;2022-09-09T16:54:40;14.90;;;3.60;;
65658;SDS011;60181;53.258;6.932;2022-09-09T16:59:12;12.00;;;3.70;;
65658;SDS011;60181;53.258;6.932;2022-09-09T17:03:36;12.00;;;3.70;;
65658;SDS011;60181;53.258;6.932;2022-09-09T17:08:04;13.30;;;3.70;;
65658;SDS011;60181;53.258;6.932;2022-09-09T17:12:32;13.30;;;3.70;;
65658;SDS011;60181;53.258;6.932;2022-09-09T17:17:00;12.80;;;3.40;;
65658;SDS011;60181;53.258;6.932;2022-09-09T17:21:28;12.80;;;3.40;;
65658;SDS011;60181;53.258;6.932;2022-09-09T17:25:56;12.80;;;3.40;;
65658;SDS011;60181;53.258;6.932;2022-09-09T17:30:24;12.30;;;3.60;;
65658;SDS011;60181;53.258;6.932;2022-09-09T17:34:52;12.30;;;3.60;;
65658;SDS011;60181;53.258;6.932;2022-09-09T17:39:20;13.70;;;3.80;;
65658;SDS011;60181;53.258;6.932;2022-09-09T17:43:48;13.70;;;3.80;;
65658;SDS011;60181;53.258;6.932;2022-09-09T17:48:16;11.60;;;3.80;;
65658;SDS011;60181;53.258;6.932;2022-09-09T17:52:44;11.60;;;3.80;;
65658;SDS011;60181;53.258;6.932;2022-09-09T17:57:12;11.30;;;4.00;;
65658;SDS011;60181;53.258;6.932;2022-09-09T18:01:40;11.30;;;4.00;;
65658;SDS011;60181;53.258;6.932;2022-09-09T18:06:09;11.30;;;4.00;;
65658;SDS011;60181;53.258;6.932;2022-09-09T18:10:36;9.50;;;3.80;;
65658;SDS011;60181;53.258;6.932;2022-09-09T18:15:04;9.50;;;3.80;;
65658;SDS011;60181;53.258;6.932;2022-09-09T18:19:32;8.20;;;3.90;;
65658;SDS011;60181;53.258;6.932;2022-09-09T18:24:00;8.20;;;3.90;;
65658;SDS011;60181;53.258;6.932;2022-09-09T18:28:28;8.20;;;3.70;;
65658;SDS011;60181;53.258;6.932;2022-09-09T18:32:56;8.20;;;3.70;;
65658;SDS011;60181;53.258;6.932;2022-09-09T18:37:23;7.30;;;3.80;;
65658;SDS011;60181;53.258;6.932;2022-09-09T18:41:53;7.30;;;3.80;;
65658;SDS011;60181;53.258;6.932;2022-09-09T18:46:20;7.30;;;3.80;;
65658;SDS011;60181;53.258;6.932;2022-09-09T18:50:47;8.90;;;3.60;;
65658;SDS011;60181;53.258;6.932;2022-09-09T18:55:16;8.90;;;3.60;;
65658;SDS011;60181;53.258;6.932;2022-09-09T18:59:43;7.30;;;3.60;;
65658;SDS011;60181;53.258;6.932;2022-09-09T19:04:12;7.30;;;3.60;;
65658;SDS011;60181;53.258;6.932;2022-09-09T19:08:40;7.40;;;3.50;;
65658;SDS011;60181;53.258;6.932;2022-09-09T19:13:07;7.40;;;3.50;;
65658;SDS011;60181;53.258;6.932;2022-09-09T19:17:35;7.80;;;3.30;;
65658;SDS011;60181;53.258;6.932;2022-09-09T19:22:03;7.80;;;3.30;;
65658;SDS011;60181;53.258;6.932;2022-09-09T19:26:35;7.80;;;3.30;;
65658;SDS011;60181;53.258;6.932;2022-09-09T19:31:03;6.80;;;3.30;;
65658;SDS011;60181;53.258;6.932;2022-09-09T19:35:27;6.80;;;3.30;;
65658;SDS011;60181;53.258;6.932;2022-09-09T19:39:55;7.10;;;3.50;;
65658;SDS011;60181;53.258;6.932;2022-09-09T19:44:23;7.10;;;3.50;;
65658;SDS011;60181;53.258;6.932;2022-09-09T19:48:51;5.80;;;3.30;;
65658;SDS011;60181;53.258;6.932;2022-09-09T19:53:20;5.80;;;3.30;;
65658;SDS011;60181;53.258;6.932;2022-09-09T19:57:47;5.10;;;3.00;;
65658;SDS011;60181;53.258;6.932;2022-09-09T20:02:15;5.10;;;3.00;;
65658;SDS011;60181;53.258;6.932;2022-09-09T20:06:44;6.90;;;3.30;;
65658;SDS011;60181;53.258;6.932;2022-09-09T20:11:12;6.90;;;3.30;;
65658;SDS011;60181;53.258;6.932;2022-09-09T20:15:39;6.90;;;3.30;;
65658;SDS011;60181;53.258;6.932;2022-09-09T20:20:08;6.30;;;3.30;;
65658;SDS011;60181;53.258;6.932;2022-09-09T20:24:35;6.30;;;3.30;;
65658;SDS011;60181;53.258;6.932;2022-09-09T20:29:04;7.50;;;3.30;;
65658;SDS011;60181;53.258;6.932;2022-09-09T20:33:32;7.50;;;3.30;;
65658;SDS011;60181;53.258;6.932;2022-09-09T20:37:59;6.30;;;3.30;;
65658;SDS011;60181;53.258;6.932;2022-09-09T20:42:27;6.30;;;3.30;;
65658;SDS011;60181;53.258;6.932;2022-09-09T20:46:55;6.00;;;3.20;;
65658;SDS011;60181;53.258;6.932;2022-09-09T20:51:24;6.00;;;3.20;;
65658;SDS011;60181;53.258;6.932;2022-09-09T20:55:51;6.00;;;3.20;;
65658;SDS011;60181;53.258;6.932;2022-09-09T21:00:19;5.60;;;2.90;;
65658;SDS011;60181;53.258;6.932;2022-09-09T21:04:47;5.60;;;2.90;;
65658;SDS011;60181;53.258;6.932;2022-09-09T21:09:16;15.50;;;3.70;;
65658;SDS011;60181;53.258;6.932;2022-09-09T21:13:43;15.50;;;3.70;;
65658;SDS011;60181;53.258;6.932;2022-09-09T21:18:11;19.40;;;3.50;;
65658;SDS011;60181;53.258;6.932;2022-09-09T21:22:39;19.40;;;3.50;;
65658;SDS011;60181;53.258;6.932;2022-09-09T21:27:07;12.60;;;3.40;;
65658;SDS011;60181;53.258;6.932;2022-09-09T21:31:35;12.60;;;3.40;;
65658;SDS011;60181;53.258;6.932;2022-09-09T21:36:04;12.60;;;3.40;;
65658;SDS011;60181;53.258;6.932;2022-09-09T21:40:35;9.70;;;3.70;;
65658;SDS011;60181;53.258;6.932;2022-09-09T21:44:59;9.70;;;3.70;;
65658;SDS011;60181;53.258;6.932;2022-09-09T21:49:27;10.60;;;3.30;;
65658;SDS011;60181;53.258;6.932;2022-09-09T21:53:55;10.60;;;3.30;;
65658;SDS011;60181;53.258;6.932;2022-09-09T21:58:23;8.10;;;3.50;;
65658;SDS011;60181;53.258;6.932;2022-09-09T22:02:51;8.10;;;3.50;;
65658;SDS011;60181;53.258;6.932;2022-09-09T22:07:19;7.90;;;3.20;;
65658;SDS011;60181;53.258;6.932;2022-09-09T22:11:47;7.90;;;3.20;;
65658;SDS011;60181;53.258;6.932;2022-09-09T22:16:16;7.90;;;3.20;;
65658;SDS011;60181;53.258;6.932;2022-09-09T22:20:43;7.90;;;3.50;;
65658;SDS011;60181;53.258;6.932;2022-09-09T22:25:11;7.90;;;3.50;;
65658;SDS011;60181;53.258;6.932;2022-09-09T22:29:39;8.30;;;3.40;;
65658;SDS011;60181;53.258;6.932;2022-09-09T22:34:07;8.30;;;3.40;;
65658;SDS011;60181;53.258;6.932;2022-09-09T22:38:35;7.40;;;3.40;;
65658;SDS011;60181;53.258;6.932;2022-09-09T22:43:04;7.40;;;3.40;;
65658;SDS011;60181;53.258;6.932;2022-09-09T22:47:31;8.30;;;3.70;;
65658;SDS011;60181;53.258;6.932;2022-09-09T22:51:59;8.30;;;3.70;;
65658;SDS011;60181;53.258;6.932;2022-09-09T22:56:27;8.30;;;3.70;;
65658;SDS011;60181;53.258;6.932;2022-09-09T23:00:55;7.40;;;3.70;;
65658;SDS011;60181;53.258;6.932;2022-09-09T23:05:23;7.40;;;3.70;;
65658;SDS011;60181;53.258;6.932;2022-09-09T23:09:51;9.70;;;3.40;;
65658;SDS011;60181;53.258;6.932;2022-09-09T23:14:19;9.70;;;3.40;;
65658;SDS011;60181;53.258;6.932;2022-09-09T23:18:47;8.80;;;3.50;;
65658;SDS011;60181;53.258;6.932;2022-09-09T23:23:15;8.80;;;3.50;;
65658;SDS011;60181;53.258;6.932;2022-09-09T23:27:43;10.90;;;3.60;;
65658;SDS011;60181;53.258;6.932;2022-09-09T23:32:11;10.90;;;3.60;;
65658;SDS011;60181;53.258;6.932;2022-09-09T23:36:39;7.60;;;3.60;;
65658;SDS011;60181;53.258;6.932;2022-09-09T23:41:08;7.60;;;3.60;;
65658;SDS011;60181;53.258;6.932;2022-09-09T23:45:35;7.60;;;3.60;;
65658;SDS011;60181;53.258;6.932;2022-09-09T23:50:03;9.70;;;4.10;;
65658;SDS011;60181;53.258;6.932;2022-09-09T23:54:31;9.70;;;4.10;;
65658;SDS011;60181;53.258;6.932;2022-09-09T23:58:59;11.10;;;3.80;;
